createdAt,value
2023-03-26T00:01:46.002Z,2.8200000000000003
2023-03-26T00:04:42.538Z,2.54
2023-03-26T00:07:38.068Z,2.9799999999999995
2023-03-26T00:10:34.649Z,2.0799999999999996
2023-03-26T00:13:32.201Z,1.94
2023-03-26T00:16:28.774Z,1.48
2023-03-26T00:19:25.308Z,1.4600000000000002
2023-03-26T00:22:22.874Z,1.52
2023-03-26T00:25:21.439Z,1.6800000000000002
2023-03-26T00:28:16.948Z,1.42
2023-03-26T00:31:14.632Z,1.44
2023-03-26T00:34:15.096Z,1.4
2023-03-26T00:40:20.186Z,1.9
2023-03-26T00:43:18.773Z,2.02
2023-03-26T00:46:14.385Z,1.6
2023-03-26T00:49:14.995Z,1.92
2023-03-26T00:52:10.399Z,2.1399999999999997
2023-03-26T00:55:06.955Z,1.6199999999999999
2023-03-26T00:58:02.566Z,1.98
2023-03-26T01:01:03.152Z,2.04
2023-03-26T01:04:09.136Z,1.6600000000000001
2023-03-26T01:07:10.144Z,1.7399999999999998
2023-03-26T01:10:07.716Z,1.78
2023-03-26T01:13:03.371Z,1.58
2023-03-26T01:16:01.982Z,1.6
2023-03-26T01:19:00.422Z,1.98
2023-03-26T01:22:02.932Z,1.9
2023-03-26T01:24:58.456Z,2.04
2023-03-26T01:28:01.067Z,1.86
2023-03-26T01:31:06.575Z,1.98
2023-03-26T01:34:12.095Z,2.22
2023-03-26T01:37:15.677Z,1.5
2023-03-26T01:40:25.158Z,1.4
2023-03-26T01:43:29.743Z,1.6199999999999999
2023-03-26T01:46:27.349Z,1.1800000000000002
2023-03-26T01:49:22.822Z,1.6199999999999999
2023-03-26T01:52:22.426Z,1.4600000000000002
2023-03-26T01:55:19.922Z,1.6
2023-03-26T01:58:27.425Z,1.36
2023-03-26T02:01:31.038Z,1.52
2023-03-26T02:04:34.565Z,1.6400000000000001
2023-03-26T02:07:42.065Z,1.7399999999999998
2023-03-26T02:10:43.656Z,1.3199999999999998
2023-03-26T02:13:40.170Z,1.6800000000000002
2023-03-26T02:16:36.777Z,1.7399999999999998
2023-03-26T02:19:32.288Z,1.6
2023-03-26T02:22:30.848Z,1.44
2023-03-26T02:25:26.413Z,1.6600000000000001
2023-03-26T02:28:22.963Z,1.8
2023-03-26T02:31:19.548Z,1.7399999999999998
2023-03-26T02:34:17.148Z,1.6800000000000002
2023-03-26T02:37:14.631Z,1.8199999999999998
2023-03-26T02:40:11.229Z,1.8
2023-03-26T02:43:07.779Z,1.48
2023-03-26T02:46:03.376Z,1.92
2023-03-26T02:48:58.879Z,1.3199999999999998
2023-03-26T02:51:56.502Z,1.6600000000000001
2023-03-26T02:54:52.989Z,1.42
2023-03-26T02:57:48.558Z,1.5399999999999998
2023-03-26T03:00:50.134Z,1.6199999999999999
2023-03-26T03:03:47.681Z,1.86
2023-03-26T03:06:44.253Z,1.2
2023-03-26T03:09:40.781Z,1.7
2023-03-26T03:12:37.353Z,1.3399999999999999
2023-03-26T03:15:32.899Z,1.94
2023-03-26T03:18:28.473Z,1.7
2023-03-26T03:21:27.029Z,1.72
2023-03-26T03:24:23.614Z,1.6199999999999999
2023-03-26T03:27:20.146Z,1.6199999999999999
2023-03-26T03:30:15.683Z,1.92
2023-03-26T03:33:13.289Z,1.64
2023-03-26T03:36:19.889Z,1.36
2023-03-26T03:39:11.336Z,1.6199999999999999
2023-03-26T03:42:06.912Z,1.6199999999999999
2023-03-26T03:48:08.075Z,1.42
2023-03-26T03:51:04.571Z,1.4599999999999997
2023-03-26T03:54:00.174Z,1.5399999999999998
2023-03-26T03:56:57.726Z,1.8199999999999998
2023-03-26T03:59:53.261Z,1.6800000000000002
2023-03-26T04:02:58.881Z,2.04
2023-03-26T04:05:56.470Z,1.7600000000000002
2023-03-26T04:08:51.924Z,1.5399999999999998
2023-03-26T04:11:47.457Z,2.0799999999999996
2023-03-26T04:17:48.617Z,2.02
2023-03-26T04:20:46.140Z,2.1800000000000006
2023-03-26T04:23:45.681Z,1.6800000000000002
2023-03-26T04:26:47.219Z,1.8199999999999998
2023-03-26T04:29:49.784Z,1.7
2023-03-26T04:32:51.351Z,1.78
2023-03-26T04:35:47.966Z,1.9
2023-03-26T04:38:44.500Z,2.9
2023-03-26T04:41:42.978Z,3.12
2023-03-26T04:44:41.562Z,3.3400000000000007
2023-03-26T04:47:39.196Z,2.8600000000000003
2023-03-26T04:50:35.659Z,2.96
2023-03-26T04:53:31.218Z,2.6799999999999997
2023-03-26T04:56:34.828Z,2.48
2023-03-26T04:59:35.408Z,2.3400000000000003
2023-03-26T05:02:31.926Z,2.0599999999999996
2023-03-26T05:05:28.391Z,3.1399999999999997
2023-03-26T05:11:29.521Z,4.279999999999999
2023-03-26T05:14:26.092Z,3.4200000000000004
2023-03-26T05:17:24.761Z,3.5799999999999996
2023-03-26T05:20:22.199Z,2.8600000000000003
2023-03-26T05:23:17.739Z,2.12
2023-03-26T05:26:13.297Z,3.0200000000000005
2023-03-26T05:29:08.871Z,2.46
2023-03-26T05:32:04.430Z,3.3600000000000003
2023-03-26T05:35:01.016Z,3.0200000000000005
2023-03-26T05:37:57.557Z,3.66
2023-03-26T05:40:57.080Z,3.22
2023-03-26T05:43:52.658Z,2.62
2023-03-26T05:46:48.252Z,3.5
2023-03-26T05:49:43.765Z,2.92
2023-03-26T05:52:39.340Z,2.3600000000000003
2023-03-26T05:55:34.921Z,2.2399999999999998
2023-03-26T05:58:32.458Z,2.2399999999999998
2023-03-26T06:01:30.078Z,2.5199999999999996
2023-03-26T06:04:27.672Z,2.6
2023-03-26T06:07:24.194Z,2.2
2023-03-26T06:10:20.692Z,3.8600000000000003
2023-03-26T06:13:16.263Z,3.72
2023-03-26T06:16:21.103Z,3
2023-03-26T06:19:13.430Z,2.92
2023-03-26T06:22:09.921Z,4.339999999999999
2023-03-26T06:25:07.532Z,3.7399999999999998
2023-03-26T06:28:04.038Z,2.7800000000000002
2023-03-26T06:31:01.670Z,2.66
2023-03-26T06:33:57.126Z,2.8000000000000003
2023-03-26T06:36:52.738Z,2.38
2023-03-26T06:39:48.284Z,2.82
2023-03-26T06:43:06.944Z,2.6
2023-03-26T06:45:44.397Z,2.42
2023-03-26T06:51:46.480Z,2.7
2023-03-26T06:54:42.071Z,2.04
2023-03-26T06:57:37.599Z,2.42
2023-03-26T07:00:33.193Z,2.32
2023-03-26T07:06:34.276Z,1.78
2023-03-26T07:12:35.416Z,2.46
2023-03-26T07:15:31.964Z,3.2400000000000007
2023-03-26T07:18:27.537Z,2.2600000000000002
2023-03-26T07:24:28.578Z,1.92
2023-03-26T07:27:36.140Z,1.44
2023-03-26T07:30:41.689Z,1.3800000000000001
2023-03-26T07:33:45.213Z,1.3400000000000003
2023-03-26T07:36:52.765Z,1.22
2023-03-26T07:39:58.236Z,2.1800000000000006
2023-03-26T07:43:05.819Z,1.86
2023-03-26T07:46:08.364Z,2.54
2023-03-26T07:49:12.898Z,2.3200000000000003
2023-03-26T07:52:10.475Z,1.48
2023-03-26T07:55:07.018Z,1.2
2023-03-26T07:58:13.575Z,1.3800000000000001
2023-03-26T08:01:18.051Z,1.52
2023-03-26T08:04:31.660Z,0.9
2023-03-26T08:07:39.138Z,1.0399999999999998
2023-03-26T08:10:42.638Z,0.8800000000000001
2023-03-26T08:13:53.181Z,1.2
2023-03-26T08:16:54.748Z,0.8200000000000001
2023-03-26T08:20:10.260Z,1.2599999999999998
2023-03-26T08:23:12.792Z,0.9600000000000002
2023-03-26T08:29:32.866Z,0.6599999999999999
2023-03-26T08:32:30.417Z,0.9400000000000001
2023-03-26T08:35:27.017Z,0.8200000000000001
2023-03-26T08:38:23.541Z,0.6199999999999999
2023-03-26T08:41:38.022Z,0.7399999999999999
2023-03-26T08:44:47.565Z,0.4
2023-03-26T08:48:03.140Z,0.4
2023-03-26T08:51:20.559Z,0.8400000000000001
2023-03-26T08:54:37.064Z,1
2023-03-26T08:57:53.599Z,0.7599999999999999
2023-03-26T09:01:09.120Z,2.5799999999999996
2023-03-26T09:04:23.620Z,1.1800000000000002
2023-03-26T09:07:37.109Z,2.1199999999999997
2023-03-26T09:10:46.673Z,1.2
2023-03-26T09:13:58.134Z,0.9
2023-03-26T09:17:13.662Z,0.42000000000000004
2023-03-26T09:20:27.234Z,0.9800000000000001
2023-03-26T09:23:38.759Z,0.7
2023-03-26T09:26:46.297Z,0.7599999999999999
2023-03-26T09:29:54.783Z,2.8200000000000003
2023-03-26T09:33:11.299Z,3.2600000000000002
2023-03-26T09:36:26.824Z,3.3600000000000003
2023-03-26T09:39:33.346Z,2.12
2023-03-26T09:42:42.869Z,0.5
2023-03-26T09:45:57.352Z,1.2399999999999998
2023-03-26T09:49:12.898Z,0.42000000000000004
2023-03-26T09:52:24.441Z,1.1
2023-03-26T09:55:39.980Z,0.6
2023-03-26T09:58:56.446Z,0.6199999999999999
2023-03-26T10:02:03.996Z,0.52
2023-03-26T10:05:21.494Z,0.8
2023-03-26T10:08:32.996Z,0.6799999999999999
2023-03-26T10:11:38.527Z,1.1800000000000002
2023-03-26T10:14:42.129Z,0.42000000000000004
2023-03-26T10:17:51.666Z,0.52
2023-03-26T10:20:59.129Z,0.48
2023-03-26T10:24:08.635Z,1.28
2023-03-26T10:27:24.312Z,0.7
2023-03-26T10:30:41.697Z,0.4
2023-03-26T10:33:52.191Z,1.3800000000000001
2023-03-26T10:37:04.715Z,0.6799999999999999
2023-03-26T10:40:12.266Z,0.4
2023-03-26T10:43:21.754Z,0.28
2023-03-26T10:46:37.328Z,1.3800000000000001
2023-03-26T10:49:48.809Z,1
2023-03-26T10:52:49.339Z,0.72
2023-03-26T10:55:51.890Z,0.9
2023-03-26T10:58:50.630Z,1.6800000000000002
2023-03-26T11:01:56.058Z,0.5599999999999999
2023-03-26T11:05:07.570Z,0.76
2023-03-26T11:08:13.049Z,1.3400000000000003
2023-03-26T11:11:19.602Z,1.22
2023-03-26T11:14:33.842Z,1.08
2023-03-26T11:17:41.000Z,0.4
2023-03-26T11:20:41.242Z,1.06
2023-03-26T11:23:49.706Z,0.9400000000000001
2023-03-26T11:26:55.236Z,1.22
2023-03-26T11:30:02.744Z,0.9800000000000001
2023-03-26T11:33:04.327Z,1.7
2023-03-26T11:39:13.404Z,1.0399999999999998
2023-03-26T11:42:10.992Z,1.3
2023-03-26T11:45:15.521Z,2.74
2023-03-26T11:48:19.058Z,0.7399999999999999
2023-03-26T11:51:19.605Z,1.42
2023-03-26T11:54:21.155Z,0.8200000000000001
2023-03-26T11:57:22.741Z,0.76
2023-03-26T12:00:27.247Z,1.02
2023-03-26T12:03:29.764Z,0.54
2023-03-26T12:06:32.348Z,0.52
2023-03-26T12:09:28.828Z,0.76
2023-03-26T12:12:30.409Z,0.36
2023-03-26T12:15:26.965Z,0.42000000000000004
2023-03-26T12:18:28.550Z,0.44000000000000006
2023-03-26T12:21:30.102Z,0.52
2023-03-26T12:24:29.611Z,0.26
2023-03-26T12:27:30.180Z,0.96
2023-03-26T12:30:33.713Z,0.6
2023-03-26T12:33:34.428Z,0.24000000000000005
2023-03-26T12:36:32.822Z,0.72
2023-03-26T12:40:07.284Z,0.7
